createdAt,value
2022-11-21T00:01:27.117Z,0
2022-11-21T00:07:27.151Z,0
2022-11-21T00:13:27.175Z,0
2022-11-21T00:19:27.150Z,0
2022-11-21T00:25:27.124Z,0
2022-11-21T00:31:27.131Z,0
2022-11-21T00:37:27.131Z,0
2022-11-21T00:43:27.127Z,0
2022-11-21T00:49:27.247Z,0
2022-11-21T00:55:27.132Z,0
2022-11-21T01:01:27.199Z,0
2022-11-21T01:07:27.195Z,0
2022-11-21T01:13:27.150Z,0
2022-11-21T01:19:27.120Z,0
2022-11-21T01:25:27.137Z,0
2022-11-21T01:31:27.141Z,0
2022-11-21T01:37:27.135Z,0
2022-11-21T01:43:27.100Z,0
2022-11-21T01:49:27.146Z,0
2022-11-21T01:55:27.104Z,0
2022-11-21T02:01:27.135Z,0
2022-11-21T02:09:27.149Z,0
2022-11-21T02:15:27.101Z,0
2022-11-21T02:21:27.087Z,0
2022-11-21T02:27:27.197Z,0
2022-11-21T02:33:27.102Z,0
2022-11-21T02:39:27.104Z,0
2022-11-21T02:45:27.127Z,0
2022-11-21T02:51:27.099Z,0
2022-11-21T02:57:27.110Z,0
2022-11-21T03:03:27.131Z,0
2022-11-21T03:09:27.109Z,0
2022-11-21T03:15:27.196Z,0
2022-11-21T03:21:27.106Z,0
2022-11-21T03:27:27.116Z,0
2022-11-21T03:33:27.084Z,0
2022-11-21T03:39:27.136Z,0
2022-11-21T03:45:27.071Z,0
2022-11-21T03:51:27.095Z,0
2022-11-21T03:57:27.129Z,0
2022-11-21T04:03:27.081Z,0
2022-11-21T04:09:27.104Z,0
2022-11-21T04:15:27.123Z,0
2022-11-21T04:21:27.105Z,0
2022-11-21T04:27:27.087Z,0
2022-11-21T04:33:27.124Z,0
2022-11-21T04:39:27.111Z,0
2022-11-21T04:45:27.113Z,0
2022-11-21T04:51:27.127Z,0
2022-11-21T04:57:27.087Z,0
2022-11-21T05:03:27.073Z,0
2022-11-21T05:09:27.116Z,0
2022-11-21T05:15:27.120Z,0
2022-11-21T05:21:27.151Z,0
2022-11-21T05:27:27.103Z,0
2022-11-21T05:33:27.088Z,0
2022-11-21T05:39:27.101Z,0
2022-11-21T05:45:27.083Z,0
2022-11-21T05:51:27.078Z,0
2022-11-21T05:57:27.132Z,0
2022-11-21T06:03:27.247Z,0
2022-11-21T06:09:27.159Z,0
2022-11-21T06:15:27.143Z,0
2022-11-21T06:21:27.127Z,0
2022-11-21T06:27:27.078Z,0
2022-11-21T06:33:27.070Z,0
2022-11-21T06:39:27.136Z,0
2022-11-21T06:45:27.114Z,0
2022-11-21T06:51:27.105Z,0
2022-11-21T06:57:27.099Z,0
2022-11-21T07:03:27.111Z,0
2022-11-21T07:09:34.848Z,0
2022-11-21T07:15:27.111Z,0
2022-11-21T07:21:27.080Z,0
2022-11-21T07:27:27.087Z,0
2022-11-21T07:33:27.089Z,0
2022-11-21T07:39:27.416Z,0
2022-11-21T07:45:27.085Z,0
2022-11-21T07:51:27.133Z,0
2022-11-21T07:57:27.076Z,0
2022-11-21T08:03:27.096Z,0
2022-11-21T08:09:27.472Z,0
2022-11-21T08:15:27.088Z,0
2022-11-21T08:21:27.100Z,0
2022-11-21T08:27:27.142Z,0
2022-11-21T08:33:27.058Z,0
2022-11-21T08:39:27.490Z,0
2022-11-21T08:45:27.104Z,0
2022-11-21T08:51:27.079Z,0
2022-11-21T08:57:27.086Z,0
2022-11-21T09:03:31.062Z,0
2022-11-21T09:09:27.083Z,0
2022-11-21T09:15:27.092Z,0
2022-11-21T09:21:27.099Z,0
2022-11-21T09:27:27.076Z,0
2022-11-21T09:33:27.085Z,0
2022-11-21T09:39:27.621Z,0
2022-11-21T09:45:27.051Z,0
2022-11-21T09:51:27.074Z,0
2022-11-21T09:57:32.038Z,0
2022-11-21T10:03:27.076Z,0
2022-11-21T10:09:27.116Z,0
2022-11-21T10:15:27.114Z,0
2022-11-21T10:21:27.057Z,0.8
2022-11-21T10:27:27.082Z,3.1
2022-11-21T10:33:27.108Z,3.4
2022-11-21T10:39:27.095Z,1.5
2022-11-21T10:45:27.104Z,1.2
2022-11-21T10:51:27.129Z,1
2022-11-21T10:57:27.084Z,0.8
2022-11-21T11:03:27.060Z,0.3
2022-11-21T11:09:27.115Z,0.3
2022-11-21T11:15:27.085Z,1.6
2022-11-21T11:21:27.073Z,1.3
2022-11-21T11:27:27.086Z,1.8
2022-11-21T11:33:27.081Z,2.9
2022-11-21T11:39:27.460Z,2.9
2022-11-21T11:45:27.085Z,2.6
2022-11-21T11:51:27.077Z,2.7
2022-11-21T11:57:27.104Z,3.2
2022-11-21T12:03:27.111Z,3.3
2022-11-21T12:09:27.569Z,3.6
2022-11-21T12:15:27.064Z,3.6
2022-11-21T12:21:27.102Z,3
2022-11-21T12:27:27.078Z,2.9
2022-11-21T12:33:27.087Z,2.4
2022-11-21T12:39:27.513Z,3
2022-11-21T12:45:27.080Z,3.7
2022-11-21T12:51:27.087Z,4.1
2022-11-21T12:57:27.112Z,3.6
2022-11-21T13:03:27.088Z,3.8
2022-11-21T13:09:27.543Z,3.6
2022-11-21T13:15:27.156Z,3.7
2022-11-21T13:21:27.070Z,4
2022-11-21T13:27:27.064Z,3.9
2022-11-21T13:33:27.103Z,3.7
2022-11-21T13:39:27.375Z,3.2
2022-11-21T13:45:27.080Z,3.4
2022-11-21T13:51:27.080Z,3
2022-11-21T13:57:27.044Z,3.4
2022-11-21T14:03:27.077Z,3.2
2022-11-21T14:09:27.515Z,2.6
2022-11-21T14:15:27.064Z,3.2
2022-11-21T14:21:27.092Z,3.2
2022-11-21T14:27:27.112Z,2.8
2022-11-21T14:33:27.087Z,3
2022-11-21T14:39:37.722Z,2.7
2022-11-21T14:45:27.106Z,2.6
2022-11-21T14:51:27.060Z,2.5
2022-11-21T14:57:27.062Z,2.3
2022-11-21T15:03:27.122Z,2.2
2022-11-21T15:15:27.070Z,1.6
2022-11-21T15:21:27.096Z,1.4
2022-11-21T15:27:27.049Z,1.3
2022-11-21T15:33:27.050Z,1.2
2022-11-21T15:39:27.102Z,1
2022-11-21T15:45:27.051Z,0.9
2022-11-21T15:57:14.426Z,0.9
2022-11-21T15:57:27.087Z,0.9
2022-11-21T16:03:27.068Z,0.8
2022-11-21T16:09:27.295Z,0.7
2022-11-21T16:15:27.097Z,0.8
2022-11-21T16:21:27.048Z,0.9
2022-11-21T16:27:27.046Z,0.8
2022-11-21T16:33:27.450Z,0.9
2022-11-21T16:39:27.085Z,1.1
2022-11-21T16:45:27.072Z,1.2
2022-11-21T16:51:27.077Z,1.1
2022-11-21T16:57:27.055Z,1
2022-11-21T17:03:27.054Z,1.1
2022-11-21T17:09:27.086Z,1.1
2022-11-21T17:15:27.082Z,1.1
2022-11-21T17:21:27.115Z,1.1
2022-11-21T17:27:27.184Z,1.1
2022-11-21T17:33:27.063Z,1
2022-11-21T17:39:29.705Z,1.1
2022-11-21T17:45:27.070Z,1
2022-11-21T17:51:27.084Z,0.9
2022-11-21T17:57:27.091Z,1
2022-11-21T18:03:27.088Z,0.9
2022-11-21T18:09:27.228Z,0.9
2022-11-21T18:15:27.032Z,0.6
2022-11-21T18:21:27.063Z,0.7
2022-11-21T18:27:27.079Z,0.6
2022-11-21T18:33:27.065Z,0.6
2022-11-21T18:39:27.219Z,0.7
2022-11-21T18:45:27.037Z,0.6
2022-11-21T18:51:27.054Z,0.6
2022-11-21T18:57:27.079Z,0.6
2022-11-21T19:03:27.033Z,0.5
2022-11-21T19:09:32.344Z,0.5
2022-11-21T19:15:27.059Z,0.5
2022-11-21T19:21:27.048Z,0.4
2022-11-21T19:27:27.071Z,0.2
2022-11-21T19:33:27.066Z,0.2
2022-11-21T19:39:27.533Z,0.2
2022-11-21T19:45:27.048Z,0.1
2022-11-21T19:51:27.068Z,0.1
2022-11-21T19:57:27.038Z,0.1
2022-11-21T20:03:27.026Z,0.2
2022-11-21T20:09:30.630Z,0
2022-11-21T20:15:27.048Z,0
2022-11-21T20:21:27.046Z,0
2022-11-21T20:27:27.063Z,0
2022-11-21T20:33:27.046Z,0
2022-11-21T20:39:27.346Z,0
2022-11-21T20:57:27.042Z,0
2022-11-21T21:03:27.042Z,0
2022-11-21T21:09:27.275Z,0
2022-11-21T21:15:27.034Z,0
2022-11-21T21:21:27.040Z,0
2022-11-21T21:27:27.004Z,0
2022-11-21T21:33:27.034Z,0
2022-11-21T21:39:27.070Z,0
2022-11-21T21:45:27.007Z,0
2022-11-21T21:51:27.014Z,0
2022-11-21T21:57:27.045Z,0
2022-11-21T22:03:27.029Z,0
2022-11-21T22:09:27.214Z,0
2022-11-21T22:15:27.039Z,0
2022-11-21T22:21:27.026Z,0
2022-11-21T22:27:27.027Z,0
2022-11-21T22:33:27.063Z,0
2022-11-21T22:39:27.026Z,0
2022-11-21T22:45:27.024Z,0
2022-11-21T22:51:27.063Z,0
2022-11-21T22:57:27.029Z,0
2022-11-21T23:03:27.031Z,0
2022-11-21T23:09:27.689Z,0
2022-11-21T23:15:27.015Z,0
2022-11-21T23:21:27.012Z,0
2022-11-21T23:27:27.043Z,0
2022-11-21T23:33:27.010Z,0
2022-11-21T23:39:27.601Z,0
2022-11-21T23:45:27.049Z,0
2022-11-21T23:51:27.001Z,0
2022-11-21T23:57:27.007Z,0
